sensor_id;sensor_type;location;lat;lon;timestamp;P1;durP1;ratioP1;P2;durP2;ratioP2
24619;SDS011;12763;55.802;37.404;2023-05-23T00:00:55;18.13;;;9.43;;
24619;SDS011;12763;55.802;37.404;2023-05-23T00:03:23;17.88;;;10.00;;
24619;SDS011;12763;55.802;37.404;2023-05-23T00:05:50;18.13;;;9.25;;
24619;SDS011;12763;55.802;37.404;2023-05-23T00:08:16;22.92;;;9.60;;
24619;SDS011;12763;55.802;37.404;2023-05-23T00:10:42;18.90;;;9.30;;
24619;SDS011;12763;55.802;37.404;2023-05-23T00:13:09;18.13;;;10.15;;
24619;SDS011;12763;55.802;37.404;2023-05-23T00:15:37;16.30;;;9.40;;
24619;SDS011;12763;55.802;37.404;2023-05-23T00:18:06;18.02;;;9.32;;
24619;SDS011;12763;55.802;37.404;2023-05-23T00:20:33;17.77;;;9.35;;
24619;SDS011;12763;55.802;37.404;2023-05-23T00:23:01;15.38;;;9.18;;
24619;SDS011;12763;55.802;37.404;2023-05-23T00:25:28;15.90;;;8.75;;
24619;SDS011;12763;55.802;37.404;2023-05-23T00:27:59;13.57;;;8.80;;
24619;SDS011;12763;55.802;37.404;2023-05-23T00:30:25;19.90;;;10.13;;
24619;SDS011;12763;55.802;37.404;2023-05-23T00:32:52;17.85;;;9.57;;
24619;SDS011;12763;55.802;37.404;2023-05-23T00:35:20;17.33;;;9.27;;
24619;SDS011;12763;55.802;37.404;2023-05-23T00:37:48;15.02;;;9.75;;
24619;SDS011;12763;55.802;37.404;2023-05-23T00:40:16;16.23;;;9.55;;
24619;SDS011;12763;55.802;37.404;2023-05-23T00:42:43;12.75;;;9.40;;
24619;SDS011;12763;55.802;37.404;2023-05-23T00:45:09;14.02;;;8.93;;
24619;SDS011;12763;55.802;37.404;2023-05-23T00:47:38;12.10;;;8.15;;
24619;SDS011;12763;55.802;37.404;2023-05-23T00:50:08;11.60;;;8.02;;
24619;SDS011;12763;55.802;37.404;2023-05-23T00:52:42;19.20;;;9.75;;
24619;SDS011;12763;55.802;37.404;2023-05-23T00:55:10;21.83;;;9.65;;
24619;SDS011;12763;55.802;37.404;2023-05-23T00:57:37;19.50;;;8.13;;
24619;SDS011;12763;55.802;37.404;2023-05-23T01:00:11;20.90;;;10.20;;
24619;SDS011;12763;55.802;37.404;2023-05-23T01:02:40;14.82;;;9.32;;
24619;SDS011;12763;55.802;37.404;2023-05-23T01:05:10;16.52;;;9.85;;
24619;SDS011;12763;55.802;37.404;2023-05-23T01:07:39;13.68;;;7.85;;
24619;SDS011;12763;55.802;37.404;2023-05-23T01:10:07;13.85;;;8.43;;
24619;SDS011;12763;55.802;37.404;2023-05-23T01:15:14;18.60;;;10.05;;
24619;SDS011;12763;55.802;37.404;2023-05-23T01:30:24;21.50;;;11.15;;
24619;SDS011;12763;55.802;37.404;2023-05-23T01:32:52;22.58;;;11.43;;
24619;SDS011;12763;55.802;37.404;2023-05-23T01:35:23;21.55;;;11.38;;
24619;SDS011;12763;55.802;37.404;2023-05-23T01:37:54;14.18;;;9.82;;
24619;SDS011;12763;55.802;37.404;2023-05-23T01:40:20;18.90;;;11.30;;
24619;SDS011;12763;55.802;37.404;2023-05-23T01:42:46;24.13;;;11.05;;
24619;SDS011;12763;55.802;37.404;2023-05-23T01:45:13;21.45;;;11.48;;
24619;SDS011;12763;55.802;37.404;2023-05-23T01:47:40;16.83;;;10.40;;
24619;SDS011;12763;55.802;37.404;2023-05-23T01:50:08;17.45;;;9.88;;
24619;SDS011;12763;55.802;37.404;2023-05-23T01:52:35;16.40;;;8.95;;
24619;SDS011;12763;55.802;37.404;2023-05-23T01:55:04;18.13;;;11.75;;
24619;SDS011;12763;55.802;37.404;2023-05-23T01:57:37;15.30;;;9.65;;
24619;SDS011;12763;55.802;37.404;2023-05-23T02:00:04;22.65;;;11.57;;
24619;SDS011;12763;55.802;37.404;2023-05-23T02:02:39;17.10;;;11.48;;
24619;SDS011;12763;55.802;37.404;2023-05-23T02:05:06;22.88;;;10.82;;
24619;SDS011;12763;55.802;37.404;2023-05-23T02:07:33;22.25;;;11.38;;
24619;SDS011;12763;55.802;37.404;2023-05-23T02:10:00;23.35;;;11.70;;
24619;SDS011;12763;55.802;37.404;2023-05-23T02:12:31;20.90;;;11.75;;
24619;SDS011;12763;55.802;37.404;2023-05-23T02:14:58;23.15;;;10.80;;
24619;SDS011;12763;55.802;37.404;2023-05-23T02:17:25;16.55;;;10.90;;
24619;SDS011;12763;55.802;37.404;2023-05-23T02:19:51;24.08;;;12.10;;
24619;SDS011;12763;55.802;37.404;2023-05-23T02:22:21;28.38;;;11.23;;
24619;SDS011;12763;55.802;37.404;2023-05-23T02:24:48;21.02;;;10.88;;
24619;SDS011;12763;55.802;37.404;2023-05-23T02:27:14;16.92;;;11.02;;
24619;SDS011;12763;55.802;37.404;2023-05-23T02:29:40;25.15;;;11.43;;
24619;SDS011;12763;55.802;37.404;2023-05-23T02:32:06;22.13;;;11.27;;
24619;SDS011;12763;55.802;37.404;2023-05-23T02:34:32;20.50;;;10.27;;
24619;SDS011;12763;55.802;37.404;2023-05-23T02:36:58;19.33;;;9.82;;
24619;SDS011;12763;55.802;37.404;2023-05-23T02:39:25;23.25;;;11.68;;
24619;SDS011;12763;55.802;37.404;2023-05-23T02:41:52;22.75;;;11.00;;
24619;SDS011;12763;55.802;37.404;2023-05-23T02:44:18;17.27;;;10.40;;
24619;SDS011;12763;55.802;37.404;2023-05-23T02:46:45;19.92;;;11.07;;
24619;SDS011;12763;55.802;37.404;2023-05-23T02:49:11;18.83;;;10.68;;
24619;SDS011;12763;55.802;37.404;2023-05-23T02:51:37;22.15;;;12.23;;
24619;SDS011;12763;55.802;37.404;2023-05-23T02:54:03;18.70;;;11.48;;
24619;SDS011;12763;55.802;37.404;2023-05-23T02:56:32;17.17;;;9.68;;
24619;SDS011;12763;55.802;37.404;2023-05-23T02:58:58;19.52;;;10.60;;
24619;SDS011;12763;55.802;37.404;2023-05-23T03:01:24;16.73;;;9.73;;
24619;SDS011;12763;55.802;37.404;2023-05-23T03:03:50;19.42;;;9.38;;
24619;SDS011;12763;55.802;37.404;2023-05-23T03:06:16;21.15;;;9.70;;
24619;SDS011;12763;55.802;37.404;2023-05-23T03:08:43;15.60;;;9.77;;
24619;SDS011;12763;55.802;37.404;2023-05-23T03:11:09;19.33;;;10.43;;
24619;SDS011;12763;55.802;37.404;2023-05-23T03:13:35;20.05;;;10.27;;
24619;SDS011;12763;55.802;37.404;2023-05-23T03:16:01;15.70;;;9.32;;
24619;SDS011;12763;55.802;37.404;2023-05-23T03:18:27;18.85;;;9.70;;
24619;SDS011;12763;55.802;37.404;2023-05-23T03:20:54;19.63;;;8.95;;
24619;SDS011;12763;55.802;37.404;2023-05-23T03:23:23;20.75;;;9.85;;
24619;SDS011;12763;55.802;37.404;2023-05-23T03:25:49;17.60;;;9.32;;
24619;SDS011;12763;55.802;37.404;2023-05-23T03:28:15;18.67;;;11.48;;
24619;SDS011;12763;55.802;37.404;2023-05-23T03:30:41;18.70;;;9.50;;
24619;SDS011;12763;55.802;37.404;2023-05-23T03:33:07;15.80;;;9.95;;
24619;SDS011;12763;55.802;37.404;2023-05-23T03:35:34;25.23;;;9.82;;
24619;SDS011;12763;55.802;37.404;2023-05-23T03:38:00;15.93;;;9.23;;
24619;SDS011;12763;55.802;37.404;2023-05-23T03:40:26;16.50;;;9.60;;
24619;SDS011;12763;55.802;37.404;2023-05-23T03:43:02;18.05;;;10.43;;
24619;SDS011;12763;55.802;37.404;2023-05-23T03:45:31;16.52;;;8.80;;
24619;SDS011;12763;55.802;37.404;2023-05-23T03:47:57;17.00;;;9.50;;
24619;SDS011;12763;55.802;37.404;2023-05-23T03:50:24;20.50;;;9.45;;
24619;SDS011;12763;55.802;37.404;2023-05-23T03:52:51;14.73;;;8.95;;
24619;SDS011;12763;55.802;37.404;2023-05-23T03:55:17;20.25;;;9.88;;
24619;SDS011;12763;55.802;37.404;2023-05-23T03:57:47;24.30;;;9.45;;
24619;SDS011;12763;55.802;37.404;2023-05-23T04:00:14;15.77;;;9.57;;
24619;SDS011;12763;55.802;37.404;2023-05-23T04:02:43;23.40;;;9.77;;
24619;SDS011;12763;55.802;37.404;2023-05-23T04:05:17;19.52;;;9.52;;
24619;SDS011;12763;55.802;37.404;2023-05-23T04:07:45;15.40;;;9.25;;
24619;SDS011;12763;55.802;37.404;2023-05-23T04:10:10;15.63;;;9.43;;
24619;SDS011;12763;55.802;37.404;2023-05-23T04:12:37;24.15;;;9.63;;
24619;SDS011;12763;55.802;37.404;2023-05-23T04:15:11;18.08;;;9.30;;
24619;SDS011;12763;55.802;37.404;2023-05-23T04:17:48;12.18;;;8.60;;
24619;SDS011;12763;55.802;37.404;2023-05-23T04:20:14;16.77;;;8.30;;
24619;SDS011;12763;55.802;37.404;2023-05-23T04:22:40;23.02;;;9.65;;
24619;SDS011;12763;55.802;37.404;2023-05-23T04:25:07;17.17;;;9.63;;
24619;SDS011;12763;55.802;37.404;2023-05-23T04:27:40;22.90;;;9.52;;
24619;SDS011;12763;55.802;37.404;2023-05-23T04:30:07;18.35;;;9.60;;
24619;SDS011;12763;55.802;37.404;2023-05-23T04:32:40;19.00;;;9.75;;
24619;SDS011;12763;55.802;37.404;2023-05-23T04:35:06;19.27;;;9.48;;
24619;SDS011;12763;55.802;37.404;2023-05-23T04:37:36;24.33;;;9.68;;
24619;SDS011;12763;55.802;37.404;2023-05-23T04:40:05;17.80;;;9.65;;
24619;SDS011;12763;55.802;37.404;2023-05-23T04:42:55;24.00;;;10.32;;
24619;SDS011;12763;55.802;37.404;2023-05-23T04:45:29;23.30;;;9.98;;
24619;SDS011;12763;55.802;37.404;2023-05-23T04:48:02;15.88;;;9.93;;
24619;SDS011;12763;55.802;37.404;2023-05-23T04:50:39;18.83;;;9.57;;
24619;SDS011;12763;55.802;37.404;2023-05-23T04:53:07;15.75;;;9.82;;
24619;SDS011;12763;55.802;37.404;2023-05-23T04:55:34;18.70;;;8.45;;
24619;SDS011;12763;55.802;37.404;2023-05-23T04:58:01;18.50;;;9.18;;
24619;SDS011;12763;55.802;37.404;2023-05-23T05:00:28;25.45;;;10.70;;
24619;SDS011;12763;55.802;37.404;2023-05-23T05:02:55;19.52;;;9.82;;
24619;SDS011;12763;55.802;37.404;2023-05-23T05:05:26;23.35;;;9.50;;
24619;SDS011;12763;55.802;37.404;2023-05-23T05:07:58;22.13;;;9.55;;
24619;SDS011;12763;55.802;37.404;2023-05-23T05:10:26;18.13;;;8.95;;
24619;SDS011;12763;55.802;37.404;2023-05-23T05:12:52;25.73;;;9.18;;
24619;SDS011;12763;55.802;37.404;2023-05-23T05:15:21;22.77;;;9.40;;
24619;SDS011;12763;55.802;37.404;2023-05-23T05:17:52;24.05;;;9.05;;
24619;SDS011;12763;55.802;37.404;2023-05-23T05:20:23;20.77;;;9.48;;
24619;SDS011;12763;55.802;37.404;2023-05-23T05:22:54;17.60;;;8.50;;
24619;SDS011;12763;55.802;37.404;2023-05-23T05:25:27;25.98;;;8.82;;
24619;SDS011;12763;55.802;37.404;2023-05-23T05:27:59;21.88;;;10.52;;
24619;SDS011;12763;55.802;37.404;2023-05-23T05:30:31;22.98;;;9.70;;
24619;SDS011;12763;55.802;37.404;2023-05-23T05:33:01;16.35;;;8.98;;
24619;SDS011;12763;55.802;37.404;2023-05-23T05:35:29;21.50;;;9.45;;
24619;SDS011;12763;55.802;37.404;2023-05-23T05:37:57;20.23;;;9.75;;
24619;SDS011;12763;55.802;37.404;2023-05-23T05:40:24;10.57;;;7.70;;
24619;SDS011;12763;55.802;37.404;2023-05-23T05:42:50;20.20;;;8.95;;
24619;SDS011;12763;55.802;37.404;2023-05-23T05:45:17;19.63;;;8.30;;
24619;SDS011;12763;55.802;37.404;2023-05-23T05:47:45;18.10;;;8.15;;
24619;SDS011;12763;55.802;37.404;2023-05-23T05:50:11;14.23;;;7.63;;
24619;SDS011;12763;55.802;37.404;2023-05-23T05:52:37;14.38;;;8.18;;
24619;SDS011;12763;55.802;37.404;2023-05-23T05:55:06;17.73;;;7.93;;
24619;SDS011;12763;55.802;37.404;2023-05-23T05:57:34;17.17;;;7.68;;
24619;SDS011;12763;55.802;37.404;2023-05-23T06:00:05;15.25;;;6.70;;
24619;SDS011;12763;55.802;37.404;2023-05-23T06:02:55;15.48;;;6.53;;
24619;SDS011;12763;55.802;37.404;2023-05-23T06:05:44;13.05;;;7.70;;
24619;SDS011;12763;55.802;37.404;2023-05-23T06:08:11;17.05;;;6.43;;
24619;SDS011;12763;55.802;37.404;2023-05-23T06:10:39;13.63;;;6.70;;
24619;SDS011;12763;55.802;37.404;2023-05-23T06:13:05;11.60;;;6.53;;
24619;SDS011;12763;55.802;37.404;2023-05-23T06:15:32;12.57;;;6.38;;
24619;SDS011;12763;55.802;37.404;2023-05-23T06:17:59;17.33;;;7.15;;
24619;SDS011;12763;55.802;37.404;2023-05-23T06:20:25;18.05;;;6.47;;
24619;SDS011;12763;55.802;37.404;2023-05-23T06:22:52;16.83;;;6.57;;
24619;SDS011;12763;55.802;37.404;2023-05-23T06:25:18;13.77;;;6.43;;
24619;SDS011;12763;55.802;37.404;2023-05-23T06:27:46;18.10;;;6.07;;
24619;SDS011;12763;55.802;37.404;2023-05-23T06:30:12;24.60;;;6.75;;
24619;SDS011;12763;55.802;37.404;2023-05-23T06:32:39;11.45;;;6.05;;
24619;SDS011;12763;55.802;37.404;2023-05-23T06:35:05;12.02;;;6.50;;
24619;SDS011;12763;55.802;37.404;2023-05-23T06:37:32;14.70;;;6.18;;
24619;SDS011;12763;55.802;37.404;2023-05-23T06:39:59;13.00;;;5.88;;
24619;SDS011;12763;55.802;37.404;2023-05-23T06:42:26;13.20;;;7.15;;
24619;SDS011;12763;55.802;37.404;2023-05-23T06:45:09;23.90;;;5.50;;
24619;SDS011;12763;55.802;37.404;2023-05-23T06:47:36;11.35;;;5.80;;
24619;SDS011;12763;55.802;37.404;2023-05-23T06:50:02;19.90;;;6.85;;
24619;SDS011;12763;55.802;37.404;2023-05-23T06:52:31;17.95;;;6.47;;
24619;SDS011;12763;55.802;37.404;2023-05-23T06:54:58;15.57;;;5.90;;
24619;SDS011;12763;55.802;37.404;2023-05-23T06:57:24;18.75;;;6.30;;
24619;SDS011;12763;55.802;37.404;2023-05-23T06:59:50;23.60;;;7.43;;
24619;SDS011;12763;55.802;37.404;2023-05-23T07:02:17;16.73;;;6.18;;
24619;SDS011;12763;55.802;37.404;2023-05-23T07:04:43;12.38;;;6.53;;
24619;SDS011;12763;55.802;37.404;2023-05-23T07:07:16;21.38;;;6.25;;
24619;SDS011;12763;55.802;37.404;2023-05-23T07:09:43;13.93;;;5.15;;
24619;SDS011;12763;55.802;37.404;2023-05-23T07:12:15;12.63;;;6.38;;
24619;SDS011;12763;55.802;37.404;2023-05-23T07:14:43;10.07;;;5.57;;
24619;SDS011;12763;55.802;37.404;2023-05-23T07:17:09;11.00;;;5.90;;
24619;SDS011;12763;55.802;37.404;2023-05-23T07:19:37;17.15;;;5.60;;
24619;SDS011;12763;55.802;37.404;2023-05-23T07:22:04;9.70;;;4.78;;
24619;SDS011;12763;55.802;37.404;2023-05-23T07:24:31;11.57;;;4.72;;
24619;SDS011;12763;55.802;37.404;2023-05-23T07:26:57;15.48;;;5.18;;
24619;SDS011;12763;55.802;37.404;2023-05-23T07:29:24;14.13;;;5.43;;
24619;SDS011;12763;55.802;37.404;2023-05-23T07:31:52;12.55;;;5.28;;
24619;SDS011;12763;55.802;37.404;2023-05-23T07:34:19;16.27;;;6.32;;
24619;SDS011;12763;55.802;37.404;2023-05-23T07:36:54;14.10;;;5.97;;
24619;SDS011;12763;55.802;37.404;2023-05-23T07:39:23;7.95;;;5.00;;
24619;SDS011;12763;55.802;37.404;2023-05-23T07:41:51;12.48;;;5.10;;
24619;SDS011;12763;55.802;37.404;2023-05-23T07:44:19;17.35;;;5.47;;
24619;SDS011;12763;55.802;37.404;2023-05-23T07:46:45;11.32;;;4.55;;
24619;SDS011;12763;55.802;37.404;2023-05-23T07:49:11;9.52;;;4.72;;
24619;SDS011;12763;55.802;37.404;2023-05-23T07:51:40;10.98;;;4.63;;
24619;SDS011;12763;55.802;37.404;2023-05-23T07:54:09;8.02;;;4.60;;
24619;SDS011;12763;55.802;37.404;2023-05-23T07:56:38;13.82;;;5.15;;
24619;SDS011;12763;55.802;37.404;2023-05-23T07:59:05;13.00;;;5.30;;
24619;SDS011;12763;55.802;37.404;2023-05-23T08:01:33;7.20;;;4.10;;
24619;SDS011;12763;55.802;37.404;2023-05-23T08:04:05;10.23;;;4.65;;
24619;SDS011;12763;55.802;37.404;2023-05-23T08:06:36;9.95;;;4.68;;
24619;SDS011;12763;55.802;37.404;2023-05-23T08:09:07;11.07;;;4.20;;
24619;SDS011;12763;55.802;37.404;2023-05-23T08:11:40;9.10;;;4.28;;
24619;SDS011;12763;55.802;37.404;2023-05-23T08:14:06;10.50;;;4.38;;
24619;SDS011;12763;55.802;37.404;2023-05-23T08:16:36;10.30;;;3.78;;
24619;SDS011;12763;55.802;37.404;2023-05-23T08:19:05;7.55;;;4.65;;
24619;SDS011;12763;55.802;37.404;2023-05-23T08:21:32;5.90;;;3.60;;
24619;SDS011;12763;55.802;37.404;2023-05-23T08:23:58;11.02;;;4.00;;
24619;SDS011;12763;55.802;37.404;2023-05-23T08:26:24;5.90;;;3.40;;
24619;SDS011;12763;55.802;37.404;2023-05-23T08:28:52;9.13;;;3.97;;
24619;SDS011;12763;55.802;37.404;2023-05-23T08:31:18;13.07;;;4.43;;
24619;SDS011;12763;55.802;37.404;2023-05-23T08:33:44;14.85;;;3.85;;
24619;SDS011;12763;55.802;37.404;2023-05-23T08:36:11;14.07;;;3.88;;
24619;SDS011;12763;55.802;37.404;2023-05-23T08:38:37;11.57;;;4.45;;
24619;SDS011;12763;55.802;37.404;2023-05-23T08:41:21;14.40;;;4.70;;
24619;SDS011;12763;55.802;37.404;2023-05-23T08:43:52;13.82;;;4.63;;
24619;SDS011;12763;55.802;37.404;2023-05-23T08:46:27;19.98;;;5.28;;
24619;SDS011;12763;55.802;37.404;2023-05-23T08:48:54;10.43;;;4.40;;
24619;SDS011;12763;55.802;37.404;2023-05-23T08:51:24;18.95;;;5.03;;
24619;SDS011;12763;55.802;37.404;2023-05-23T08:53:51;9.25;;;4.28;;
24619;SDS011;12763;55.802;37.404;2023-05-23T08:56:22;11.38;;;4.68;;
24619;SDS011;12763;55.802;37.404;2023-05-23T08:58:50;13.75;;;4.47;;
24619;SDS011;12763;55.802;37.404;2023-05-23T09:01:19;12.45;;;4.68;;
24619;SDS011;12763;55.802;37.404;2023-05-23T09:03:50;11.93;;;5.00;;
24619;SDS011;12763;55.802;37.404;2023-05-23T09:06:35;13.00;;;4.97;;
24619;SDS011;12763;55.802;37.404;2023-05-23T09:09:01;14.20;;;5.55;;
24619;SDS011;12763;55.802;37.404;2023-05-23T09:11:28;8.63;;;4.97;;
24619;SDS011;12763;55.802;37.404;2023-05-23T09:13:56;9.73;;;5.00;;
24619;SDS011;12763;55.802;37.404;2023-05-23T09:16:23;18.65;;;5.68;;
24619;SDS011;12763;55.802;37.404;2023-05-23T09:18:56;10.82;;;4.63;;
24619;SDS011;12763;55.802;37.404;2023-05-23T09:21:24;11.60;;;5.55;;
24619;SDS011;12763;55.802;37.404;2023-05-23T09:24:13;12.77;;;5.15;;
24619;SDS011;12763;55.802;37.404;2023-05-23T09:26:38;9.68;;;4.75;;
24619;SDS011;12763;55.802;37.404;2023-05-23T09:29:05;10.32;;;4.70;;
24619;SDS011;12763;55.802;37.404;2023-05-23T09:31:34;14.40;;;5.22;;
24619;SDS011;12763;55.802;37.404;2023-05-23T09:34:02;6.30;;;4.50;;
24619;SDS011;12763;55.802;37.404;2023-05-23T09:36:29;16.58;;;5.03;;
24619;SDS011;12763;55.802;37.404;2023-05-23T09:39:00;11.38;;;4.97;;
24619;SDS011;12763;55.802;37.404;2023-05-23T09:41:29;9.88;;;5.28;;
24619;SDS011;12763;55.802;37.404;2023-05-23T09:43:57;9.30;;;4.93;;
24619;SDS011;12763;55.802;37.404;2023-05-23T09:46:26;10.23;;;4.90;;
24619;SDS011;12763;55.802;37.404;2023-05-23T09:48:54;11.02;;;5.03;;
24619;SDS011;12763;55.802;37.404;2023-05-23T09:51:22;9.73;;;4.40;;
24619;SDS011;12763;55.802;37.404;2023-05-23T09:53:49;6.28;;;4.00;;
24619;SDS011;12763;55.802;37.404;2023-05-23T09:56:16;8.02;;;4.20;;
24619;SDS011;12763;55.802;37.404;2023-05-23T09:58:46;10.55;;;4.82;;
24619;SDS011;12763;55.802;37.404;2023-05-23T10:01:14;13.82;;;4.30;;
24619;SDS011;12763;55.802;37.404;2023-05-23T10:03:45;10.82;;;4.72;;
24619;SDS011;12763;55.802;37.404;2023-05-23T10:06:24;10.18;;;4.07;;
24619;SDS011;12763;55.802;37.404;2023-05-23T10:08:58;9.85;;;4.10;;
24619;SDS011;12763;55.802;37.404;2023-05-23T10:14:02;8.45;;;3.63;;
24619;SDS011;12763;55.802;37.404;2023-05-23T10:16:48;8.38;;;3.70;;
24619;SDS011;12763;55.802;37.404;2023-05-23T10:19:30;8.68;;;3.60;;
24619;SDS011;12763;55.802;37.404;2023-05-23T10:22:03;9.25;;;4.32;;
24619;SDS011;12763;55.802;37.404;2023-05-23T10:24:36;8.00;;;3.83;;
24619;SDS011;12763;55.802;37.404;2023-05-23T10:27:03;7.28;;;3.50;;
24619;SDS011;12763;55.802;37.404;2023-05-23T10:29:29;11.13;;;4.28;;
24619;SDS011;12763;55.802;37.404;2023-05-23T10:31:55;5.70;;;4.10;;
24619;SDS011;12763;55.802;37.404;2023-05-23T10:37:28;9.02;;;4.80;;
24619;SDS011;12763;55.802;37.404;2023-05-23T10:40:09;7.55;;;4.32;;
24619;SDS011;12763;55.802;37.404;2023-05-23T10:45:38;6.97;;;4.40;;
24619;SDS011;12763;55.802;37.404;2023-05-23T10:49:09;8.63;;;4.10;;
24619;SDS011;12763;55.802;37.404;2023-05-23T10:51:12;13.40;;;4.60;;
24619;SDS011;12763;55.802;37.404;2023-05-23T10:53:40;9.52;;;4.93;;
24619;SDS011;12763;55.802;37.404;2023-05-23T10:56:18;8.13;;;4.72;;
24619;SDS011;12763;55.802;37.404;2023-05-23T10:58:51;8.10;;;4.85;;
24619;SDS011;12763;55.802;37.404;2023-05-23T11:01:19;12.07;;;5.07;;
24619;SDS011;12763;55.802;37.404;2023-05-23T11:09:12;9.70;;;5.95;;
24619;SDS011;12763;55.802;37.404;2023-05-23T11:14:30;9.18;;;5.15;;
24619;SDS011;12763;55.802;37.404;2023-05-23T11:17:00;7.47;;;5.25;;
24619;SDS011;12763;55.802;37.404;2023-05-23T11:19:58;12.90;;;6.45;;
24619;SDS011;12763;55.802;37.404;2023-05-23T11:22:37;13.10;;;6.47;;
24619;SDS011;12763;55.802;37.404;2023-05-23T11:25:07;10.80;;;5.78;;
24619;SDS011;12763;55.802;37.404;2023-05-23T11:27:39;9.68;;;5.70;;
24619;SDS011;12763;55.802;37.404;2023-05-23T11:32:40;13.23;;;6.30;;
24619;SDS011;12763;55.802;37.404;2023-05-23T11:35:08;15.60;;;6.78;;
24619;SDS011;12763;55.802;37.404;2023-05-23T11:37:37;13.52;;;6.30;;
24619;SDS011;12763;55.802;37.404;2023-05-23T11:43:00;13.68;;;7.07;;
24619;SDS011;12763;55.802;37.404;2023-05-23T11:45:29;11.77;;;7.10;;
24619;SDS011;12763;55.802;37.404;2023-05-23T11:47:57;19.30;;;8.45;;
24619;SDS011;12763;55.802;37.404;2023-05-23T11:50:23;10.90;;;7.40;;
24619;SDS011;12763;55.802;37.404;2023-05-23T11:52:49;11.75;;;7.80;;
24619;SDS011;12763;55.802;37.404;2023-05-23T11:55:18;19.38;;;9.10;;
24619;SDS011;12763;55.802;37.404;2023-05-23T11:57:48;14.88;;;8.25;;
24619;SDS011;12763;55.802;37.404;2023-05-23T12:00:16;14.75;;;9.50;;
24619;SDS011;12763;55.802;37.404;2023-05-23T12:02:44;21.85;;;9.18;;
24619;SDS011;12763;55.802;37.404;2023-05-23T12:05:13;18.10;;;8.63;;
24619;SDS011;12763;55.802;37.404;2023-05-23T12:07:44;16.45;;;8.70;;
24619;SDS011;12763;55.802;37.404;2023-05-23T12:10:13;16.73;;;9.73;;
24619;SDS011;12763;55.802;37.404;2023-05-23T12:12:41;17.88;;;9.10;;
24619;SDS011;12763;55.802;37.404;2023-05-23T12:15:09;15.82;;;7.93;;
24619;SDS011;12763;55.802;37.404;2023-05-23T12:17:39;16.70;;;9.52;;
24619;SDS011;12763;55.802;37.404;2023-05-23T12:20:12;21.58;;;10.68;;
24619;SDS011;12763;55.802;37.404;2023-05-23T12:22:39;18.20;;;9.77;;
24619;SDS011;12763;55.802;37.404;2023-05-23T12:25:08;19.63;;;10.23;;
24619;SDS011;12763;55.802;37.404;2023-05-23T12:27:38;11.55;;;9.32;;
24619;SDS011;12763;55.802;37.404;2023-05-23T12:32:38;15.73;;;8.75;;
24619;SDS011;12763;55.802;37.404;2023-05-23T12:35:07;20.30;;;9.63;;
24619;SDS011;12763;55.802;37.404;2023-05-23T12:37:33;14.45;;;9.63;;
24619;SDS011;12763;55.802;37.404;2023-05-23T12:40:15;16.98;;;9.30;;
24619;SDS011;12763;55.802;37.404;2023-05-23T12:42:45;12.98;;;9.20;;
24619;SDS011;12763;55.802;37.404;2023-05-23T12:45:19;13.30;;;9.82;;
24619;SDS011;12763;55.802;37.404;2023-05-23T12:47:46;14.45;;;10.57;;
24619;SDS011;12763;55.802;37.404;2023-05-23T12:50:12;13.57;;;10.52;;
24619;SDS011;12763;55.802;37.404;2023-05-23T12:52:39;12.75;;;9.77;;
24619;SDS011;12763;55.802;37.404;2023-05-23T12:55:05;19.33;;;11.10;;
24619;SDS011;12763;55.802;37.404;2023-05-23T12:57:33;16.13;;;10.68;;
24619;SDS011;12763;55.802;37.404;2023-05-23T13:00:00;16.67;;;11.35;;
24619;SDS011;12763;55.802;37.404;2023-05-23T13:02:30;20.25;;;11.98;;
24619;SDS011;12763;55.802;37.404;2023-05-23T13:04:56;18.73;;;11.45;;
24619;SDS011;12763;55.802;37.404;2023-05-23T13:07:22;22.23;;;12.15;;
24619;SDS011;12763;55.802;37.404;2023-05-23T13:09:52;16.80;;;11.38;;
24619;SDS011;12763;55.802;37.404;2023-05-23T13:12:21;20.25;;;12.85;;
24619;SDS011;12763;55.802;37.404;2023-05-23T13:14:47;16.38;;;11.10;;
24619;SDS011;12763;55.802;37.404;2023-05-23T13:17:14;17.38;;;10.73;;
24619;SDS011;12763;55.802;37.404;2023-05-23T13:19:40;20.13;;;11.73;;
24619;SDS011;12763;55.802;37.404;2023-05-23T13:22:07;19.48;;;11.77;;
24619;SDS011;12763;55.802;37.404;2023-05-23T13:24:36;17.83;;;10.73;;
24619;SDS011;12763;55.802;37.404;2023-05-23T13:27:05;16.20;;;10.38;;
24619;SDS011;12763;55.802;37.404;2023-05-23T13:29:32;17.67;;;10.43;;
24619;SDS011;12763;55.802;37.404;2023-05-23T13:31:58;15.77;;;9.55;;
24619;SDS011;12763;55.802;37.404;2023-05-23T13:34:25;17.33;;;10.55;;
24619;SDS011;12763;55.802;37.404;2023-05-23T13:36:53;17.05;;;10.45;;
24619;SDS011;12763;55.802;37.404;2023-05-23T13:39:20;18.15;;;10.20;;
24619;SDS011;12763;55.802;37.404;2023-05-23T13:41:48;20.25;;;9.93;;
24619;SDS011;12763;55.802;37.404;2023-05-23T13:44:14;20.00;;;9.90;;
24619;SDS011;12763;55.802;37.404;2023-05-23T13:46:41;15.00;;;8.73;;
24619;SDS011;12763;55.802;37.404;2023-05-23T13:49:07;15.30;;;8.77;;
24619;SDS011;12763;55.802;37.404;2023-05-23T13:51:33;12.50;;;8.48;;
24619;SDS011;12763;55.802;37.404;2023-05-23T13:54:02;11.52;;;8.38;;
24619;SDS011;12763;55.802;37.404;2023-05-23T13:56:29;16.00;;;8.02;;
24619;SDS011;12763;55.802;37.404;2023-05-23T13:58:55;15.13;;;10.02;;
24619;SDS011;12763;55.802;37.404;2023-05-23T14:01:20;17.25;;;9.30;;
24619;SDS011;12763;55.802;37.404;2023-05-23T14:03:46;15.90;;;10.07;;
24619;SDS011;12763;55.802;37.404;2023-05-23T14:06:12;17.67;;;10.52;;
24619;SDS011;12763;55.802;37.404;2023-05-23T14:08:38;20.25;;;10.80;;
24619;SDS011;12763;55.802;37.404;2023-05-23T14:11:03;17.13;;;9.75;;
24619;SDS011;12763;55.802;37.404;2023-05-23T14:13:29;15.88;;;9.05;;
24619;SDS011;12763;55.802;37.404;2023-05-23T14:15:55;14.95;;;9.80;;
24619;SDS011;12763;55.802;37.404;2023-05-23T14:18:21;13.77;;;9.82;;
24619;SDS011;12763;55.802;37.404;2023-05-23T14:20:47;25.67;;;9.30;;
24619;SDS011;12763;55.802;37.404;2023-05-23T14:23:12;20.02;;;8.90;;
24619;SDS011;12763;55.802;37.404;2023-05-23T14:25:38;18.10;;;9.15;;
24619;SDS011;12763;55.802;37.404;2023-05-23T14:28:04;31.20;;;9.45;;
24619;SDS011;12763;55.802;37.404;2023-05-23T14:30:29;15.63;;;9.80;;
24619;SDS011;12763;55.802;37.404;2023-05-23T14:32:55;25.00;;;10.07;;
24619;SDS011;12763;55.802;37.404;2023-05-23T14:35:21;22.85;;;10.77;;
24619;SDS011;12763;55.802;37.404;2023-05-23T14:37:47;20.70;;;10.75;;
24619;SDS011;12763;55.802;37.404;2023-05-23T14:40:13;21.75;;;10.55;;
24619;SDS011;12763;55.802;37.404;2023-05-23T14:42:40;23.02;;;11.63;;
24619;SDS011;12763;55.802;37.404;2023-05-23T14:45:07;29.58;;;12.18;;
24619;SDS011;12763;55.802;37.404;2023-05-23T14:47:33;26.10;;;12.05;;
24619;SDS011;12763;55.802;37.404;2023-05-23T14:49:59;20.33;;;11.40;;
24619;SDS011;12763;55.802;37.404;2023-05-23T14:52:25;25.20;;;12.18;;
24619;SDS011;12763;55.802;37.404;2023-05-23T14:54:51;23.33;;;11.70;;
24619;SDS011;12763;55.802;37.404;2023-05-23T14:57:17;25.80;;;13.75;;
24619;SDS011;12763;55.802;37.404;2023-05-23T14:59:43;22.23;;;13.15;;
24619;SDS011;12763;55.802;37.404;2023-05-23T15:02:10;28.52;;;14.20;;
24619;SDS011;12763;55.802;37.404;2023-05-23T15:04:36;22.27;;;13.82;;
24619;SDS011;12763;55.802;37.404;2023-05-23T15:07:02;26.73;;;12.82;;
24619;SDS011;12763;55.802;37.404;2023-05-23T15:09:28;28.27;;;12.80;;